Time;durP1;ratioP1;P1;durP2;ratioP2;P2;SDS_P1;SDS_P2;PMS_P1;PMS_P2;Temp;Humidity;BMP_temperature;BMP_pressure;BME280_temperature;BME280_humidity;BME280_pressure;Samples;Min_cycle;Max_cycle;Signal;HPM_P1;HPM_P2
2024/01/21 00:01:43;;;;;;;;;27.75;25.25;;;;;1.93;58.88;102131.16;5117915;27;70458;-52
2024/01/21 00:04:08;;;;;;;;;26.75;23.50;;;;;1.97;58.81;102126.81;5108385;27;73383;-52
2024/01/21 00:06:34;;;;;;;;;21.00;17.00;;;;;2.03;58.88;102116.31;5118512;27;68443;-49
2024/01/21 00:08:59;;;;;;;;;23.25;20.75;;;;;2.08;58.95;102104.09;5116335;27;45441;-53
2024/01/21 00:11:25;;;;;;;;;20.50;14.25;;;;;2.12;58.61;102103.25;5119822;27;62171;-53
2024/01/21 00:13:50;;;;;;;;;21.00;17.75;;;;;2.14;58.70;102098.91;5117303;27;76127;-54
2024/01/21 00:16:15;;;;;;;;;19.25;18.00;;;;;2.15;58.70;102099.75;5127729;27;45367;-53
2024/01/21 00:18:41;;;;;;;;;21.00;17.75;;;;;2.17;58.84;102103.28;5117680;27;55510;-53
2024/01/21 00:21:06;;;;;;;;;18.75;13.50;;;;;2.21;58.75;102099.81;5121102;27;45700;-50
2024/01/21 00:23:32;;;;;;;;;25.00;22.25;;;;;2.22;58.06;102106.81;5123020;27;46452;-53
2024/01/21 00:25:58;;;;;;;;;25.00;19.50;;;;;2.16;58.22;102098.91;5118368;27;72269;-52
2024/01/21 00:28:24;;;;;;;;;19.50;14.50;;;;;2.15;58.34;102105.00;5114325;27;45522;-53
2024/01/21 00:30:49;;;;;;;;;18.50;17.75;;;;;2.17;58.35;102100.66;5122566;27;45397;-53
2024/01/21 00:33:15;;;;;;;;;29.25;24.75;;;;;2.19;58.41;102111.16;5114065;27;65171;-52
2024/01/21 00:35:40;;;;;;;;;18.75;18.75;;;;;2.14;58.38;102116.41;5110010;27;72290;-50
2024/01/21 00:38:05;;;;;;;;;29.00;17.50;;;;;2.08;58.33;102119.00;5119692;27;47020;-53
2024/01/21 00:40:30;;;;;;;;;23.50;17.75;;;;;2.03;58.58;102112.84;5107841;27;69829;-53
2024/01/21 00:42:58;;;;;;;;;24.50;22.00;;;;;2.02;58.48;102113.69;5112324;27;52246;-51
2024/01/21 00:45:24;;;;;;;;;28.50;23.75;;;;;2.00;58.34;102110.19;5122009;27;45419;-52
2024/01/21 00:47:49;;;;;;;;;25.50;20.50;;;;;2.01;58.44;102099.69;5108079;27;45341;-53
2024/01/21 00:50:15;;;;;;;;;19.00;17.75;;;;;1.99;58.49;102083.06;5116858;27;68828;-53
2024/01/21 00:52:40;;;;;;;;;17.25;15.00;;;;;2.02;58.72;102084.81;5122131;27;45434;-52
2024/01/21 00:55:06;;;;;;;;;23.75;18.75;;;;;2.02;58.48;102103.19;5124209;27;72788;-49
2024/01/21 00:57:31;;;;;;;;;27.75;20.25;;;;;2.00;58.57;102103.19;5110904;27;45289;-52
2024/01/21 00:59:56;;;;;;;;;19.50;16.75;;;;;1.98;58.38;102112.78;5119149;27;57132;-54
2024/01/21 01:02:22;;;;;;;;;21.25;18.00;;;;;1.97;58.36;102111.91;5120075;27;56966;-52
2024/01/21 01:04:48;;;;;;;;;23.25;16.00;;;;;1.97;58.51;102126.81;5118568;27;45400;-53
2024/01/21 01:07:13;;;;;;;;;23.00;19.00;;;;;1.93;58.35;102120.66;5120575;27;45391;-52
2024/01/21 01:09:39;;;;;;;;;30.50;17.00;;;;;1.91;58.38;102116.25;5114087;27;70380;-53
2024/01/21 01:12:04;;;;;;;;;20.50;17.75;;;;;1.89;58.49;102121.50;5106302;27;45341;-52
2024/01/21 01:14:30;;;;;;;;;22.25;16.75;;;;;1.90;58.64;102122.38;5124999;27;45334;-53
2024/01/21 01:16:55;;;;;;;;;15.50;12.75;;;;;1.93;58.64;102115.41;5124262;27;69134;-53
2024/01/21 01:19:20;;;;;;;;;27.25;18.75;;;;;1.97;58.90;102111.91;5120320;27;67545;-53
2024/01/21 01:21:46;;;;;;;;;23.50;18.75;;;;;1.95;58.40;102095.28;5119151;27;73696;-52
2024/01/21 01:24:11;;;;;;;;;18.75;14.50;;;;;1.98;58.91;102099.66;5115118;27;73303;-53
2024/01/21 01:26:36;;;;;;;;;14.33;13.00;;;;;2.00;59.08;102111.06;5120322;27;58826;-52
2024/01/21 01:29:01;;;;;;;;;19.00;16.00;;;;;2.03;58.60;102113.69;5122438;27;69097;-53
2024/01/21 01:31:27;;;;;;;;;15.00;11.33;;;;;2.05;58.51;102114.59;5112804;27;75413;-50
2024/01/21 01:33:52;;;;;;;;;13.25;12.25;;;;;2.08;59.16;102111.13;5119729;27;71855;-50
2024/01/21 01:36:18;;;;;;;;;13.00;12.67;;;;;2.13;58.87;102114.66;5106902;27;45605;-52
2024/01/21 01:38:43;;;;;;;;;20.33;11.33;;;;;2.17;58.63;102098.03;5120436;27;45609;-53
2024/01/21 01:41:08;;;;;;;;;12.33;12.33;;;;;2.22;58.86;102098.06;5116345;27;74875;-53
2024/01/21 01:43:34;;;;;;;;;16.33;9.67;;;;;2.24;58.89;102106.81;5109960;27;45323;-53
2024/01/21 01:46:00;;;;;;;;;14.25;12.50;;;;;2.27;58.83;102118.22;5116220;27;45503;-54
2024/01/21 01:48:26;;;;;;;;;17.67;11.33;;;;;2.29;58.80;102113.88;5119472;27;45861;-54
2024/01/21 01:50:52;;;;;;;;;14.00;9.33;;;;;2.35;58.86;102123.53;5118128;27;46126;-53
2024/01/21 01:53:17;;;;;;;;;15.33;11.33;;;;;2.38;58.43;102123.53;5117115;27;72532;-54
2024/01/21 01:55:44;;;;;;;;;17.50;10.25;;;;;2.40;58.46;102129.69;5103113;27;45321;-53
2024/01/21 01:58:10;;;;;;;;;21.00;18.00;;;;;2.45;58.33;102134.94;5115636;27;45334;-53
2024/01/21 02:00:36;;;;;;;;;13.00;10.67;;;;;2.46;58.50;102139.31;5122568;27;45514;-50
2024/01/21 02:03:02;;;;;;;;;15.50;13.00;;;;;2.52;58.19;102144.63;5118214;27;45610;-51
2024/01/21 02:05:27;;;;;;;;;8.50;6.50;;;;;2.52;58.29;102139.38;5118306;27;45429;-52
2024/01/21 02:07:52;;;;;;;;;13.33;8.33;;;;;2.54;57.75;102136.75;5126897;27;68603;-50
2024/01/21 02:10:18;;;;;;;;;17.00;15.50;;;;;2.58;57.63;102128.91;5121742;27;48007;-49
2024/01/21 02:12:43;;;;;;;;;19.00;13.00;;;;;2.54;56.99;102127.09;5113827;27;45376;-53
2024/01/21 02:15:10;;;;;;;;;20.25;17.25;;;;;2.48;57.17;102132.34;5114917;27;45446;-51
2024/01/21 02:17:35;;;;;;;;;13.00;12.50;;;;;2.46;57.58;102119.22;5117290;27;45338;-52
2024/01/21 02:20:00;;;;;;;;;9.00;9.00;;;;;2.45;57.27;102122.69;5120469;27;72316;-53
2024/01/21 02:22:26;;;;;;;;;18.00;14.67;;;;;2.44;57.23;102127.97;5115672;27;55974;-52
2024/01/21 02:24:51;;;;;;;;;12.75;11.25;;;;;2.46;57.49;102119.22;5116838;27;59185;-53
2024/01/21 02:27:16;;;;;;;;;15.25;13.75;;;;;2.50;57.31;102113.97;5117099;27;70608;-53
2024/01/21 02:29:42;;;;;;;;;16.75;13.25;;;;;2.52;57.20;102122.75;5122407;27;68137;-53
2024/01/21 02:32:07;;;;;;;;;14.50;12.75;;;;;2.52;57.32;102112.22;5118474;27;68895;-52
2024/01/21 02:34:32;;;;;;;;;13.25;13.25;;;;;2.53;57.64;102113.97;5120782;27;64552;-52
2024/01/21 02:36:58;;;;;;;;;16.25;12.50;;;;;2.54;57.65;102110.47;5113461;27;45394;-54
2024/01/21 02:39:24;;;;;;;;;12.00;11.67;;;;;2.56;57.20;102122.75;5118927;27;45991;-53
2024/01/21 02:41:49;;;;;;;;;13.00;11.67;;;;;2.56;57.22;102125.38;5114960;27;45405;-52
2024/01/21 02:44:14;;;;;;;;;14.50;12.50;;;;;2.55;57.32;102113.09;5122173;27;45373;-53
2024/01/21 02:46:40;;;;;;;;;13.50;11.75;;;;;2.53;57.50;102112.22;5119503;27;70448;-50
2024/01/21 02:49:05;;;;;;;;;13.75;10.25;;;;;2.58;57.49;102114.88;5120601;27;45983;-50
2024/01/21 02:51:30;;;;;;;;;19.00;12.00;;;;;2.60;57.16;102100.00;5118774;27;45546;-52
2024/01/21 02:53:56;;;;;;;;;14.75;13.00;;;;;2.61;57.02;102099.13;5112855;27;68154;-50
2024/01/21 02:56:22;;;;;;;;;12.00;9.67;;;;;2.59;57.08;102085.09;5113500;27;69250;-52
2024/01/21 02:58:51;;;;;;;;;15.67;13.33;;;;;2.55;56.81;102081.56;5128892;27;45344;-54
2024/01/21 03:01:17;;;;;;;;;15.00;12.00;;;;;2.56;57.52;102085.09;5108228;27;45809;-54
2024/01/21 03:03:43;;;;;;;;;17.67;12.00;;;;;2.60;57.69;102077.22;5116498;27;45438;-51
2024/01/21 03:06:08;;;;;;;;;13.67;9.00;;;;;2.61;57.20;102062.34;5117068;27;66693;-51
2024/01/21 03:08:33;;;;;;;;;12.00;11.67;;;;;2.63;57.17;102052.69;5120187;27;74526;-51
2024/01/21 03:10:58;;;;;;;;;9.00;7.00;;;;;2.64;57.07;102054.47;5109662;27;69562;-52
2024/01/21 03:13:24;;;;;;;;;9.00;9.00;;;;;2.59;56.88;102050.94;5120419;27;64769;-49
2024/01/21 03:15:49;;;;;;;;;18.00;11.33;;;;;2.58;56.62;102051.81;5122720;27;69877;-51
2024/01/21 03:18:14;;;;;;;;;13.00;12.33;;;;;2.56;56.55;102056.19;5121201;27;73186;-52
2024/01/21 03:20:40;;;;;;;;;8.00;7.00;;;;;2.57;56.99;102061.47;5116590;27;63263;-52
2024/01/21 03:23:05;;;;;;;;;15.33;10.00;;;;;2.63;56.89;102065.84;5118902;27;46758;-52
2024/01/21 03:25:30;;;;;;;;;16.33;12.67;;;;;2.67;56.95;102059.72;5127204;27;71223;-51
2024/01/21 03:27:56;;;;;;;;;8.33;8.33;;;;;2.71;57.03;102089.50;5114909;27;71101;-52
2024/01/21 03:30:21;;;;;;;;;14.00;13.00;;;;;2.75;56.29;102104.41;5124418;27;45423;-52
2024/01/21 03:32:46;;;;;;;;;14.00;12.00;;;;;2.76;56.30;102096.53;5112379;27;45298;-52
2024/01/21 03:35:12;;;;;;;;;9.00;4.00;;;;;2.78;56.59;102105.31;5120437;27;69066;-52
2024/01/21 03:37:38;;;;;;;;;9.33;9.33;;;;;2.82;56.46;102103.56;5118133;27;52838;-49
2024/01/21 03:40:05;;;;;;;;;8.33;6.67;;;;;2.85;56.23;102105.34;5120863;27;45460;-51
2024/01/21 03:42:30;;;;;;;;;7.00;7.00;;;;;2.87;56.05;102104.47;5116050;27;45369;-51
2024/01/21 03:44:55;;;;;;;;;12.00;12.00;;;;;2.91;55.93;102103.59;5109178;27;45353;-52
2024/01/21 03:47:21;;;;;;;;;14.33;12.00;;;;;2.94;55.97;102105.34;5113813;27;74254;-53
2024/01/21 03:49:46;;;;;;;;;9.00;7.67;;;;;2.96;56.23;102107.13;5116715;27;73138;-51
2024/01/21 03:52:11;;;;;;;;;10.33;7.33;;;;;2.96;55.38;102122.91;5121099;27;60790;-52
2024/01/21 03:54:37;;;;;;;;;19.00;11.00;;;;;2.96;55.62;102120.25;5120136;27;51312;-52
2024/01/21 03:57:02;;;;;;;;;8.67;8.00;;;;;2.96;55.75;102122.03;5122133;27;75746;-51
2024/01/21 03:59:27;;;;;;;;;10.33;7.33;;;;;2.97;55.45;102111.50;5130134;27;45309;-52
2024/01/21 04:01:53;;;;;;;;;8.00;8.00;;;;;3.00;55.58;102115.00;5118815;27;63466;-50
2024/01/21 04:04:18;;;;;;;;;10.50;9.25;;;;;3.01;55.33;102109.75;5118665;27;65310;-52
2024/01/21 04:06:43;;;;;;;;;10.00;10.00;;;;;3.02;54.93;102114.13;5118143;27;68456;-52
2024/01/21 04:09:09;;;;;;;;;13.33;12.33;;;;;3.03;54.23;102100.13;5115776;27;55267;-49
2024/01/21 04:11:35;;;;;;;;;11.67;8.67;;;;;3.05;55.07;102093.13;5119571;27;45408;-52
2024/01/21 04:14:00;;;;;;;;;7.33;7.33;;;;;3.06;54.75;102084.34;5126523;27;45757;-50
2024/01/21 04:16:25;;;;;;;;;10.00;8.00;;;;;3.09;54.77;102084.38;5118988;27;46147;-51
2024/01/21 04:18:51;;;;;;;;;8.67;6.67;;;;;3.08;54.58;102069.47;5118090;27;73460;-51
2024/01/21 04:21:16;;;;;;;;;9.33;8.67;;;;;3.10;55.09;102062.47;5117280;27;68287;-51
2024/01/21 04:23:41;;;;;;;;;11.67;11.67;;;;;3.12;54.47;102063.31;5121636;27;70464;-51
2024/01/21 04:26:07;;;;;;;;;8.67;6.33;;;;;3.07;54.63;102066.84;5126562;27;66446;-50
2024/01/21 04:28:32;;;;;;;;;11.67;9.67;;;;;3.07;54.99;102062.44;5129365;27;45502;-52
2024/01/21 04:30:57;;;;;;;;;15.00;13.67;;;;;3.11;55.20;102037.91;5117594;27;63512;-53
2024/01/21 04:33:23;;;;;;;;;11.00;11.00;;;;;3.12;55.17;102038.78;5122630;27;54906;-51
2024/01/21 04:35:48;;;;;;;;;9.00;9.00;;;;;3.11;55.27;102053.66;5113018;27;45925;-52
2024/01/21 04:38:13;;;;;;;;;10.67;10.67;;;;;3.09;55.15;102051.91;5118476;27;47256;-52
2024/01/21 04:40:39;;;;;;;;;9.67;8.00;;;;;3.08;55.43;102048.41;5116654;27;56487;-53
2024/01/21 04:43:04;;;;;;;;;9.67;9.00;;;;;3.11;55.59;102060.69;5112088;27;65083;-52
2024/01/21 04:45:29;;;;;;;;;10.33;7.33;;;;;3.16;55.69;102052.81;5114383;27;72466;-52
2024/01/21 04:47:54;;;;;;;;;12.00;9.00;;;;;3.18;55.55;102064.19;5122834;27;73157;-51
2024/01/21 04:50:20;;;;;;;;;7.67;6.67;;;;;3.21;55.73;102062.47;5119078;27;49269;-52
2024/01/21 04:52:45;;;;;;;;;12.50;8.50;;;;;3.20;55.15;102054.56;5118658;27;45459;-52
2024/01/21 04:55:11;;;;;;;;;8.50;8.25;;;;;3.22;55.46;102047.53;5133309;27;75451;-51
2024/01/21 04:57:36;;;;;;;;;8.33;6.67;;;;;3.25;55.05;102052.81;5122727;27;70107;-53
2024/01/21 05:00:02;;;;;;;;;13.00;10.67;;;;;3.26;54.96;102051.94;5120049;27;45590;-52
2024/01/21 05:02:28;;;;;;;;;14.33;11.67;;;;;3.23;54.21;102038.78;5122510;27;45583;-52
2024/01/21 05:04:53;;;;;;;;;13.00;10.33;;;;;3.21;54.96;102045.81;5135874;27;47109;-51
2024/01/21 05:07:18;;;;;;;;;8.33;7.33;;;;;3.22;55.31;102061.59;5116945;27;45455;-50
2024/01/21 05:09:44;;;;;;;;;7.67;6.33;;;;;3.28;55.15;102055.44;5116884;27;48173;-52
2024/01/21 05:12:09;;;;;;;;;15.00;9.33;;;;;3.34;55.66;102026.53;5117111;27;67332;-53
2024/01/21 05:14:34;;;;;;;;;12.33;8.00;;;;;3.38;55.63;102020.38;5116305;27;63051;-51
2024/01/21 05:17:00;;;;;;;;;9.67;8.00;;;;;3.41;55.95;102025.63;5105219;27;46085;-50
2024/01/21 05:19:25;;;;;;;;;9.33;9.00;;;;;3.44;56.43;102033.53;5116897;27;65583;-52
2024/01/21 05:21:51;;;;;;;;;14.00;9.00;;;;;3.46;56.98;102028.28;5106626;27;68943;-53
2024/01/21 05:24:16;;;;;;;;;7.00;7.00;;;;;3.45;57.11;102022.09;5118263;27;46167;-52
2024/01/21 05:26:43;;;;;;;;;7.67;7.00;;;;;3.42;57.33;102016.00;5123171;27;45401;-52
2024/01/21 05:29:09;;;;;;;;;8.00;7.00;;;;;3.45;57.54;102018.63;5121701;27;45392;-50
2024/01/21 05:31:34;;;;;;;;;6.33;4.67;;;;;3.50;57.60;102013.38;5118978;27;70324;-52
2024/01/21 05:33:59;;;;;;;;;6.00;6.00;;;;;3.56;58.07;101997.53;5118054;27;46120;-52
2024/01/21 05:36:24;;;;;;;;;2.00;1.67;;;;;3.56;57.88;101997.53;5120479;27;72848;-51
2024/01/21 05:38:50;;;;;;;;;6.67;6.67;;;;;3.56;57.20;102008.06;5120306;27;67279;-52
2024/01/21 05:41:15;;;;;;;;;9.00;7.00;;;;;3.60;57.16;102028.25;5112307;27;60934;-51
2024/01/21 05:43:41;;;;;;;;;3.00;3.00;;;;;3.60;57.70;102021.22;5118671;27;56702;-51
2024/01/21 05:46:06;;;;;;;;;9.67;8.00;;;;;3.66;57.78;102024.72;5114048;27;45268;-54
2024/01/21 05:48:32;;;;;;;;;7.67;7.00;;;;;3.66;57.75;102017.69;5119831;27;45381;-52
2024/01/21 05:50:57;;;;;;;;;12.33;7.33;;;;;3.63;57.17;101999.31;5118355;27;63400;-52
2024/01/21 05:53:22;;;;;;;;;10.33;8.33;;;;;3.60;57.72;101979.13;5129019;27;74917;-50
2024/01/21 05:55:48;;;;;;;;;5.67;4.00;;;;;3.55;57.62;102001.09;5120546;27;65045;-52
2024/01/21 05:58:15;;;;;;;;;8.67;7.00;;;;;3.50;57.76;102008.09;5128514;27;45557;-52
2024/01/21 06:00:40;;;;;;;;;10.33;8.00;;;;;3.45;57.79;102026.50;5117509;27;45413;-52
2024/01/21 06:03:06;;;;;;;;;15.00;7.67;;;;;3.44;57.93;102009.88;5118885;27;74902;-52
2024/01/21 06:05:31;;;;;;;;;9.00;7.00;;;;;3.44;58.23;102011.59;5120082;27;45505;-50
2024/01/21 06:07:57;;;;;;;;;7.67;4.33;;;;;3.48;58.01;102011.59;5115815;27;45482;-48
2024/01/21 06:10:22;;;;;;;;;8.00;7.00;;;;;3.56;58.46;102029.13;5124883;27;69615;-50
2024/01/21 06:12:47;;;;;;;;;6.33;6.00;;;;;3.56;57.89;102027.38;5123722;27;74387;-50
2024/01/21 06:15:13;;;;;;;;;7.00;7.00;;;;;3.60;58.55;102038.78;5106867;27;73206;-51
2024/01/21 06:17:38;;;;;;;;;7.33;6.00;;;;;3.64;58.78;102044.03;5122731;27;45517;-53
2024/01/21 06:20:04;;;;;;;;;8.67;7.67;;;;;3.72;58.28;102037.91;5118363;27;45514;-49
2024/01/21 06:22:29;;;;;;;;;7.67;6.67;;;;;3.74;58.24;102034.38;5115913;27;46472;-52
2024/01/21 06:24:54;;;;;;;;;4.00;3.33;;;;;3.79;58.17;102011.56;5108852;27;71591;-52
2024/01/21 06:27:19;;;;;;;;;3.00;3.00;;;;;3.85;58.41;102008.03;5121831;27;55576;-53
2024/01/21 06:29:45;;;;;;;;;11.00;7.00;;;;;3.89;58.68;102022.06;5114786;27;45470;-53
2024/01/21 06:32:10;;;;;;;;;6.00;6.00;;;;;3.89;58.18;102017.66;5120875;27;60745;-53
2024/01/21 06:34:36;;;;;;;;;5.00;2.00;;;;;3.90;58.34;102013.28;5121869;27;45350;-52
2024/01/21 06:37:01;;;;;;;;;12.33;8.00;;;;;3.91;58.70;102007.13;5112326;27;64671;-52
2024/01/21 06:39:26;;;;;;;;;3.67;2.67;;;;;3.92;59.02;102022.03;5111831;27;71206;-49
2024/01/21 06:41:52;;;;;;;;;6.00;6.00;;;;;3.97;59.16;102015.00;5122423;27;55819;-53
2024/01/21 06:44:17;;;;;;;;;9.33;6.00;;;;;4.01;58.95;102010.63;5118423;27;45566;-52
2024/01/21 06:46:43;;;;;;;;;7.00;6.67;;;;;4.03;58.94;102022.00;5119196;27;69136;-53
2024/01/21 06:49:08;;;;;;;;;7.00;6.00;;;;;4.06;59.60;102035.16;5120098;27;45359;-53
2024/01/21 06:51:46;;;;;;;;;4.33;4.33;;;;;4.08;59.82;102033.41;5121802;27;76775;-51
2024/01/21 06:54:15;;;;;;;;;6.00;6.00;;;;;4.10;59.69;102037.78;5120368;27;45409;-54
2024/01/21 06:56:40;;;;;;;;;6.00;6.00;;;;;4.08;60.36;102044.81;5121751;27;45582;-52
2024/01/21 06:59:06;;;;;;;;;6.67;6.67;;;;;4.04;59.88;102042.19;5121383;27;45441;-53
2024/01/21 07:01:31;;;;;;;;;6.00;4.00;;;;;4.00;60.07;102049.22;5118456;27;45976;-53
2024/01/21 07:03:56;;;;;;;;;6.67;6.33;;;;;3.96;60.00;102050.09;5125054;27;45425;-53
2024/01/21 07:06:22;;;;;;;;;9.33;7.67;;;;;3.92;60.61;102051.00;5121201;27;45879;-54
2024/01/21 07:08:47;;;;;;;;;8.00;8.00;;;;;3.93;60.00;102069.41;5121665;27;45365;-53
2024/01/21 07:11:13;;;;;;;;;5.67;5.67;;;;;3.94;60.20;102075.56;5128270;27;46902;-52
2024/01/21 07:13:38;;;;;;;;;8.00;8.00;;;;;3.96;60.24;102073.81;5121559;27;45447;-53
2024/01/21 07:16:04;;;;;;;;;6.00;5.33;;;;;3.97;59.75;102080.81;5120690;27;65109;-50
2024/01/21 07:18:30;;;;;;;;;7.00;7.00;;;;;4.00;60.31;102072.91;5122707;27;45439;-54
2024/01/21 07:20:55;;;;;;;;;7.33;7.33;;;;;4.03;60.74;102080.81;5117028;27;55796;-52
2024/01/21 07:23:20;;;;;;;;;8.67;8.00;;;;;4.05;60.04;102080.81;5120954;27;45451;-52
2024/01/21 07:25:47;;;;;;;;;11.00;8.33;;;;;3.96;60.90;102089.59;5122033;27;45595;-52
2024/01/21 07:28:12;;;;;;;;;7.67;6.67;;;;;3.92;61.17;102095.75;5119983;27;45401;-53
2024/01/21 07:30:37;;;;;;;;;7.67;6.00;;;;;3.90;60.68;102089.63;5121104;27;45312;-49
2024/01/21 07:33:03;;;;;;;;;6.33;6.33;;;;;3.86;61.57;102080.84;5120747;27;71286;-51
2024/01/21 07:35:29;;;;;;;;;2.33;1.00;;;;;3.82;61.51;102081.75;5117040;27;45652;-53
2024/01/21 07:37:54;;;;;;;;;7.67;7.00;;;;;3.78;61.56;102066.81;5124935;27;45567;-52
2024/01/21 07:40:19;;;;;;;;;12.33;10.00;;;;;3.77;62.19;102079.09;5116778;27;74546;-52
2024/01/21 07:42:45;;;;;;;;;7.33;7.33;;;;;3.75;61.79;102099.28;5121170;27;67784;-53
2024/01/21 07:45:11;;;;;;;;;9.67;8.67;;;;;3.76;62.32;102098.41;5118437;27;45356;-52
2024/01/21 07:47:36;;;;;;;;;8.00;4.33;;;;;3.77;61.95;102110.69;5116679;27;45291;-54
2024/01/21 07:50:02;;;;;;;;;8.00;7.33;;;;;3.81;61.87;102130.88;5133944;27;56955;-52
2024/01/21 07:52:27;;;;;;;;;9.33;7.33;;;;;3.86;61.71;102130.88;5129531;27;45611;-57
2024/01/21 07:54:52;;;;;;;;;9.67;8.00;;;;;3.87;62.15;102131.75;5119163;27;67355;-57
2024/01/21 07:57:18;;;;;;;;;5.00;3.33;;;;;3.91;61.77;102128.22;5129989;27;45446;-57
2024/01/21 07:59:43;;;;;;;;;14.67;8.67;;;;;3.92;62.26;102140.50;5107812;27;51777;-56
2024/01/21 08:02:09;;;;;;;;;8.33;8.33;;;;;3.94;62.28;102137.00;5111269;27;70429;-57
2024/01/21 08:04:34;;;;;;;;;13.00;8.00;;;;;3.94;62.57;102128.25;5121634;27;68631;-58
2024/01/21 08:07:00;;;;;;;;;12.00;9.00;;;;;3.93;62.54;102127.34;5119265;27;45394;-57
2024/01/21 08:09:25;;;;;;;;;8.33;6.33;;;;;3.92;62.05;102128.22;5117380;27;72872;-56
2024/01/21 08:11:50;;;;;;;;;11.67;8.33;;;;;3.92;62.08;102122.94;5100738;27;45495;-57
2024/01/21 08:14:16;;;;;;;;;3.67;3.67;;;;;3.96;62.47;102137.00;5112696;27;69361;-57
2024/01/21 08:16:41;;;;;;;;;10.67;9.33;;;;;3.95;62.84;102127.34;5107553;27;64698;-57
2024/01/21 08:19:06;;;;;;;;;6.00;4.00;;;;;3.92;62.94;102132.63;5112662;27;73921;-57
2024/01/21 08:21:32;;;;;;;;;9.67;8.33;;;;;3.91;62.64;102136.13;5118327;27;57269;-57
2024/01/21 08:23:57;;;;;;;;;7.00;7.00;;;;;3.93;62.80;102132.59;5113540;27;45780;-57
2024/01/21 08:26:23;;;;;;;;;3.33;2.33;;;;;3.98;62.01;102140.50;5119890;27;45496;-57
2024/01/21 08:28:48;;;;;;;;;11.00;8.00;;;;;3.97;62.83;102154.56;5113078;27;74652;-58
2024/01/21 08:31:14;;;;;;;;;8.00;7.00;;;;;4.02;62.56;102173.84;5111178;27;55170;-57
2024/01/21 08:33:39;;;;;;;;;10.67;10.67;;;;;4.08;62.88;102180.88;5120709;27;45479;-58
2024/01/21 08:36:05;;;;;;;;;9.33;8.00;;;;;4.13;61.92;102194.91;5115485;27;64720;-58
2024/01/21 08:38:30;;;;;;;;;9.33;8.67;;;;;4.17;62.47;102201.91;5103508;27;45745;-56
2024/01/21 08:40:56;;;;;;;;;10.67;10.33;;;;;4.22;62.04;102215.09;5111406;27;69995;-57
2024/01/21 08:43:21;;;;;;;;;6.67;6.67;;;;;4.28;62.04;102230.91;5112955;27;60818;-56
2024/01/21 08:45:46;;;;;;;;;4.00;4.00;;;;;4.35;61.91;102237.91;5118054;27;69670;-58
2024/01/21 08:48:12;;;;;;;;;7.67;7.67;;;;;4.42;62.31;102237.03;5111351;27;73026;-56
2024/01/21 08:50:37;;;;;;;;;7.00;6.33;;;;;4.47;61.91;102223.84;5118616;27;73213;-57
2024/01/21 08:53:02;;;;;;;;;11.67;8.00;;;;;4.54;61.89;102222.09;5115331;27;60655;-56
2024/01/21 08:55:28;;;;;;;;;5.67;5.67;;;;;4.57;61.74;102220.31;5113751;27;45401;-56
2024/01/21 08:57:53;;;;;;;;;7.00;7.00;;;;;4.61;61.94;102210.63;5117249;27;71967;-56
2024/01/21 09:00:18;;;;;;;;;9.00;7.33;;;;;4.62;62.05;102217.66;5108233;27;61587;-56
2024/01/21 09:02:44;;;;;;;;;6.67;6.67;;;;;4.61;62.20;102226.44;5114862;27;45385;-56
2024/01/21 09:05:10;;;;;;;;;7.00;7.00;;;;;4.63;62.63;102224.69;5107369;27;65774;-55
2024/01/21 09:07:36;;;;;;;;;7.00;7.00;;;;;4.66;62.51;102200.97;5109508;27;46371;-56
2024/01/21 09:10:03;;;;;;;;;17.33;8.00;;;;;4.68;62.30;102199.22;5115398;27;45548;-56
2024/01/21 09:12:29;;;;;;;;;7.67;7.00;;;;;4.71;62.29;102206.22;5119638;27;45324;-57
2024/01/21 09:14:54;;;;;;;;;10.33;9.00;;;;;4.69;62.67;102211.47;5113671;27;45374;-56
2024/01/21 09:17:20;;;;;;;;;6.67;4.00;;;;;4.71;62.83;102209.72;5114598;27;46812;-56
2024/01/21 09:19:45;;;;;;;;;3.00;2.00;;;;;4.78;62.69;102206.22;5115523;27;72256;-56
2024/01/21 09:22:10;;;;;;;;;9.67;7.33;;;;;4.87;63.19;102223.72;5106787;27;45443;-56
2024/01/21 09:24:36;;;;;;;;;8.00;8.00;;;;;4.94;62.92;102214.94;5116574;27;45508;-56
2024/01/21 09:27:01;;;;;;;;;7.67;7.67;;;;;4.99;62.73;102220.16;5118565;27;57688;-56
2024/01/21 09:29:26;;;;;;;;;10.00;7.67;;;;;5.07;62.42;102204.31;5116707;27;45352;-55
2024/01/21 09:31:58;;;;;;;;;8.50;7.00;;;;;5.19;62.50;102214.81;5118704;27;69346;-57
2024/01/21 09:34:24;;;;;;;;;15.33;9.33;;;;;5.26;62.44;102182.22;5105472;27;45386;-56
2024/01/21 09:36:51;;;;;;;;;9.00;7.33;;;;;5.35;62.38;102183.06;5110086;27;45603;-57
2024/01/21 09:39:17;;;;;;;;;12.00;8.00;;;;;5.47;62.22;102188.25;5109385;27;45855;-56
2024/01/21 09:41:48;;;;;;;;;8.00;8.00;;;;;5.52;62.37;102202.31;5118583;27;45460;-56
2024/01/21 09:44:13;;;;;;;;;9.33;8.00;;;;;5.59;62.06;102211.06;5118674;27;45480;-55
2024/01/21 09:46:39;;;;;;;;;8.00;8.00;;;;;5.66;62.52;102220.69;5118740;27;45857;-57
2024/01/21 09:49:06;;;;;;;;;8.33;7.67;;;;;5.68;62.16;102215.41;5129905;27;45527;-56
2024/01/21 09:51:32;;;;;;;;;8.00;8.00;;;;;5.69;62.35;102215.38;5117802;27;45287;-56
2024/01/21 09:54:00;;;;;;;;;7.33;5.67;;;;;5.70;61.82;102218.94;5141289;27;68474;-56
2024/01/21 09:56:25;;;;;;;;;11.00;8.33;;;;;5.67;62.04;102229.50;5114740;27;47178;-55
2024/01/21 09:58:52;;;;;;;;;9.00;6.00;;;;;5.62;61.75;102222.47;5115509;27;45276;-56
2024/01/21 10:01:18;;;;;;;;;6.67;6.67;;;;;5.63;62.21;102220.69;5115270;27;45508;-57
2024/01/21 10:03:44;;;;;;;;;5.33;3.00;;;;;5.65;62.32;102224.22;5113628;27;47656;-56
2024/01/21 10:06:10;;;;;;;;;9.33;8.00;;;;;5.68;62.18;102247.94;5118917;27;45493;-57
2024/01/21 10:08:39;;;;;;;;;8.33;5.00;;;;;5.67;62.04;102253.25;5119068;27;45696;-56
2024/01/21 10:11:04;;;;;;;;;11.00;9.00;;;;;5.66;62.40;102248.84;5118728;27;45378;-56
2024/01/21 10:13:31;;;;;;;;;11.33;7.67;;;;;5.64;62.96;102246.22;5118606;27;48767;-57
2024/01/21 10:15:57;;;;;;;;;10.00;8.67;;;;;5.61;62.64;102246.25;5117840;27;45665;-55
2024/01/21 10:18:22;;;;;;;;;4.00;4.00;;;;;5.56;62.63;102235.72;5118036;27;45485;-57
2024/01/21 10:20:48;;;;;;;;;8.33;8.33;;;;;5.47;63.30;102235.78;5118988;27;45301;-57
2024/01/21 10:23:13;;;;;;;;;15.00;10.67;;;;;5.46;62.81;102220.81;5117248;27;58534;-57
2024/01/21 10:25:41;;;;;;;;;8.00;8.00;;;;;5.41;63.93;102212.03;5118434;27;67988;-56
2024/01/21 10:28:06;;;;;;;;;8.00;8.00;;;;;5.39;64.13;102198.00;5151331;27;45676;-57
2024/01/21 10:30:32;;;;;;;;;10.33;9.00;;;;;5.41;64.06;102210.31;5119191;27;45785;-56
2024/01/21 10:32:57;;;;;;;;;10.00;9.33;;;;;5.44;65.20;102198.84;5117886;27;45234;-56
2024/01/21 10:35:23;;;;;;;;;8.00;4.00;;;;;5.51;64.63;102181.22;5116014;27;46152;-54
2024/01/21 10:37:48;;;;;;;;;10.00;9.67;;;;;5.50;66.21;102182.09;5099051;27;45390;-56
2024/01/21 10:40:13;;;;;;;;;9.33;8.67;;;;;5.56;66.13;102171.50;5116888;27;48325;-55
2024/01/21 10:42:40;;;;;;;;;12.00;8.00;;;;;5.62;66.29;102156.47;5113656;27;68304;-57
2024/01/21 10:45:05;;;;;;;;;8.33;8.33;;;;;5.71;66.97;102154.66;5104992;27;45491;-56
2024/01/21 10:47:34;;;;;;;;;7.00;7.00;;;;;5.83;67.06;102165.13;5110352;27;45354;-57
2024/01/21 10:50:01;;;;;;;;;12.00;7.67;;;;;5.88;67.35;102152.75;5109175;27;45404;-56
2024/01/21 10:52:27;;;;;;;;;8.00;6.67;;;;;5.93;67.35;102143.03;5102742;27;45542;-56
2024/01/21 10:54:53;;;;;;;;;8.00;8.00;;;;;5.98;67.58;102145.63;5119821;27;73718;-56
2024/01/21 10:57:18;;;;;;;;;9.00;9.00;;;;;6.02;67.79;102146.50;5120137;27;45469;-56
2024/01/21 10:59:45;;;;;;;;;9.00;5.33;;;;;6.09;67.58;102151.72;5114887;27;45403;-57
2024/01/21 11:02:10;;;;;;;;;7.00;7.00;;;;;6.22;68.24;102157.75;5108853;27;45471;-57
2024/01/21 11:04:36;;;;;;;;;11.67;9.00;;;;;6.29;68.69;102150.63;5111582;27;57344;-56
2024/01/21 11:07:01;;;;;;;;;9.00;8.67;;;;;6.38;68.90;102147.88;5101632;27;67530;-57
2024/01/21 11:09:30;;;;;;;;;12.00;7.00;;;;;6.41;69.70;102160.19;5120796;27;45551;-57
2024/01/21 11:11:55;;;;;;;;;9.00;5.33;;;;;6.43;70.38;102163.72;5122056;27;45619;-56
2024/01/21 11:14:30;;;;;;;;;11.00;9.00;;;;;6.44;71.25;102181.28;5113250;27;64617;-57
2024/01/21 11:16:57;;;;;;;;;6.33;6.33;;;;;6.46;70.56;102169.81;5120499;27;45452;-56
2024/01/21 11:19:24;;;;;;;;;8.00;7.67;;;;;6.47;71.40;102162.78;5121072;27;45375;-56